Time;durP1;ratioP1;P1;durP2;ratioP2;P2;SDS_P1;SDS_P2;PMS_P1;PMS_P2;Temp;Humidity;BMP_temperature;BMP_pressure;BME280_temperature;BME280_humidity;BME280_pressure;Samples;Min_cycle;Max_cycle;Signal;HPM_P1;HPM_P2
2022/01/01 00:03:40;;;;;;;10.83;5.70;;;8.80;99.90;;;7.19;97.47;100354.63;10370578;28;96997;-78
2022/01/01 00:08:43;;;;;;;10.00;6.07;;;9.00;99.90;;;7.51;95.78;100346.34;10387451;27;97907;-78
2022/01/01 00:13:46;;;;;;;15.10;6.80;;;9.30;99.90;;;7.82;93.68;100337.31;10365433;28;98016;-79
2022/01/01 00:18:50;;;;;;;10.33;5.57;;;9.60;99.90;;;8.01;91.21;100327.44;10373522;28;97701;-78
2022/01/01 00:23:57;;;;;;;13.87;6.57;;;9.80;99.90;;;8.09;90.09;100321.41;10379375;28;97848;-78
2022/01/01 00:28:59;;;;;;;10.30;5.10;;;9.90;99.90;;;8.17;89.22;100318.88;10368764;28;97622;-78
2022/01/01 00:34:03;;;;;;;11.27;5.70;;;10.00;99.90;;;8.22;88.36;100326.38;10370428;27;97139;-78
2022/01/01 00:39:06;;;;;;;14.40;6.00;;;10.10;99.90;;;8.19;87.99;100314.25;10395203;28;97112;-78
2022/01/01 00:44:11;;;;;;;13.73;6.23;;;10.10;99.90;;;8.18;87.80;100315.22;10403853;28;98197;-78
2022/01/01 00:49:14;;;;;;;10.40;5.47;;;10.10;99.90;;;8.20;87.80;100309.78;10392680;28;96696;-78
2022/01/01 00:54:17;;;;;;;10.97;6.00;;;10.10;99.90;;;8.18;87.92;100317.88;10359967;28;96751;-78
2022/01/01 00:59:20;;;;;;;9.93;4.90;;;10.10;99.90;;;8.24;87.92;100317.28;10394285;28;97162;-78
2022/01/01 01:04:25;;;;;;;10.87;5.70;;;10.10;99.90;;;8.29;87.63;100314.19;10367046;28;97371;-78
2022/01/01 01:09:29;;;;;;;10.20;5.40;;;10.20;99.90;;;8.29;87.89;100324.78;10373858;28;98466;-78
2022/01/01 01:14:39;;;;;;;9.60;5.30;;;10.20;99.90;;;8.24;87.90;100327.88;10403151;28;98260;-78
2022/01/01 01:19:42;;;;;;;11.07;5.10;;;10.20;99.90;;;8.24;88.22;100335.81;10403104;27;97640;-78
2022/01/01 01:24:45;;;;;;;11.10;6.00;;;10.10;99.90;;;8.26;88.26;100343.59;10382888;27;97173;-78
2022/01/01 01:29:49;;;;;;;15.43;8.33;;;10.20;99.90;;;8.23;88.54;100347.38;10393578;27;98165;-78
2022/01/01 01:34:53;;;;;;;15.90;7.73;;;10.20;99.90;;;8.26;88.68;100348.88;10394359;28;98495;-78
2022/01/01 01:39:57;;;;;;;13.87;7.77;;;10.20;99.90;;;8.32;88.63;100335.06;10353749;27;97173;-78
2022/01/01 01:45:04;;;;;;;15.30;8.00;;;10.20;99.90;;;8.43;88.48;100344.63;10406096;27;96922;-78
2022/01/01 01:50:12;;;;;;;13.17;7.17;;;10.30;99.90;;;8.43;88.16;100348.13;10386143;28;96658;-78
2022/01/01 01:55:15;;;;;;;15.70;8.30;;;10.30;99.90;;;8.50;88.32;100348.34;10368021;28;96743;-78
2022/01/01 02:05:45;;;;;;;11.50;7.27;;;10.50;99.90;;;8.94;87.07;100343.13;10362292;28;96776;-79
2022/01/01 02:10:52;;;;;;;16.40;8.87;;;10.70;99.90;;;9.04;86.56;100341.19;10372092;28;97464;-78
2022/01/01 02:20:59;;;;;;;16.00;8.47;;;10.90;99.90;;;9.23;85.13;100340.97;10395123;28;96873;-78
2022/01/01 02:26:03;;;;;;;26.60;10.43;;;11.00;99.90;;;9.25;84.96;100344.34;10389593;28;97140;-78
2022/01/01 02:31:08;;;;;;;17.77;8.70;;;11.00;99.90;;;9.26;84.93;100335.38;10370932;27;99338;-78
2022/01/01 02:36:11;;;;;;;24.43;9.83;;;11.10;99.90;;;9.32;84.88;100333.94;10379285;27;96691;-78
2022/01/01 02:41:14;;;;;;;27.83;11.43;;;11.10;99.90;;;9.32;84.49;100348.03;10372015;27;97067;-78
2022/01/01 02:46:17;;;;;;;16.30;8.13;;;11.20;99.90;;;9.30;84.24;100346.53;10397034;27;96709;-78
2022/01/01 02:51:20;;;;;;;14.47;7.73;;;11.10;99.90;;;9.24;84.60;100344.50;10374650;28;97182;-78
2022/01/01 02:56:26;;;;;;;13.30;8.13;;;11.10;99.90;;;9.21;84.68;100340.31;10383481;28;98057;-78
2022/01/01 03:01:29;;;;;;;16.00;9.70;;;11.10;99.90;;;9.12;84.56;100330.66;10359872;28;97450;-78
2022/01/01 03:06:33;;;;;;;17.93;8.73;;;11.00;99.90;;;9.01;85.02;100344.16;10355525;28;96867;-78
2022/01/01 03:11:36;;;;;;;14.90;8.57;;;10.90;99.90;;;8.93;85.49;100341.44;10396527;28;96585;-78
2022/01/01 03:16:38;;;;;;;14.07;8.03;;;10.80;99.90;;;8.92;86.25;100334.47;10369088;28;97948;-78
2022/01/01 03:21:41;;;;;;;13.87;7.60;;;10.80;99.90;;;8.96;86.46;100336.66;10361933;28;96827;-77
2022/01/01 03:26:44;;;;;;;13.77;7.97;;;10.80;99.90;;;9.08;86.46;100337.25;10382129;28;96648;-78
2022/01/01 03:31:47;;;;;;;14.57;8.47;;;10.90;99.90;;;9.09;86.28;100346.88;10361346;28;99555;-78
2022/01/01 03:36:50;;;;;;;13.57;8.60;;;10.90;99.90;;;9.15;86.03;100362.16;10387293;28;96917;-78
2022/01/01 03:41:53;;;;;;;14.10;8.63;;;10.90;99.90;;;9.12;85.93;100357.19;10364814;28;97569;-78
2022/01/01 03:47:07;;;;;;;13.53;7.67;;;10.90;99.90;;;9.09;85.98;100337.09;10362249;28;98600;-78
2022/01/01 03:52:10;;;;;;;11.47;6.87;;;10.90;99.90;;;9.11;86.33;100344.88;10375604;28;96824;-78
2022/01/01 03:57:13;;;;;;;10.77;6.60;;;10.90;99.90;;;9.14;86.83;100352.53;10373290;27;96642;-78
2022/01/01 04:02:15;;;;;;;10.43;6.20;;;10.90;99.90;;;9.38;86.72;100371.25;10394376;28;96654;-78
2022/01/01 04:07:19;;;;;;;10.67;6.13;;;11.10;99.90;;;9.65;85.33;100362.31;10361209;27;99356;-78
2022/01/01 04:12:22;;;;;;;9.87;6.23;;;11.30;99.90;;;9.77;84.52;100359.38;10364019;28;96900;-77
2022/01/01 04:17:27;;;;;;;7.83;5.23;;;11.50;99.90;;;9.92;83.96;100355.97;10378294;27;98068;-79
2022/01/01 04:22:29;;;;;;;11.40;5.23;;;11.60;99.90;;;10.04;83.38;100356.50;10392919;28;98241;-79
2022/01/01 04:27:32;;;;;;;9.83;4.63;;;11.70;99.90;;;10.12;82.86;100377.75;10367029;28;96953;-79
2022/01/01 04:32:35;;;;;;;7.57;3.90;;;11.80;99.90;;;10.25;82.16;100374.69;10380509;28;96811;-79
2022/01/01 04:37:38;;;;;;;7.73;4.67;;;11.90;99.90;;;10.33;81.72;100389.84;10369492;28;97278;-78
2022/01/01 04:42:41;;;;;;;8.03;4.13;;;12.00;99.90;;;10.34;81.37;100384.34;10383810;28;96763;-78
2022/01/01 04:47:44;;;;;;;6.87;4.13;;;12.10;99.90;;;10.42;81.26;100400.31;10379039;28;98100;-78
2022/01/01 04:52:47;;;;;;;6.40;4.07;;;12.10;99.90;;;10.41;80.97;100411.94;10387295;28;96732;-77
2022/01/01 04:57:50;;;;;;;6.07;4.03;;;12.10;99.90;;;10.44;80.93;100414.28;10376410;28;96521;-79
2022/01/01 05:02:53;;;;;;;5.57;3.30;;;12.20;99.90;;;10.49;81.08;100416.44;10389373;28;96986;-79
2022/01/01 05:07:58;;;;;;;6.20;3.80;;;12.20;99.90;;;10.49;80.90;100423.56;10407658;27;97385;-79
2022/01/01 05:13:01;;;;;;;5.77;3.37;;;12.20;99.90;;;10.45;81.18;100445.16;10378326;28;96692;-80
2022/01/01 05:18:04;;;;;;;6.40;3.33;;;12.20;99.90;;;10.41;81.39;100438.50;10379603;28;97982;-80
2022/01/01 05:23:06;;;;;;;7.70;3.40;;;12.20;99.90;;;10.38;81.35;100444.16;10395635;28;96520;-80
2022/01/01 05:28:10;;;;;;;5.57;3.03;;;12.20;99.90;;;10.32;81.68;100454.59;10386415;28;96690;-80
2022/01/01 05:33:13;;;;;;;4.20;2.80;;;12.10;99.90;;;10.33;81.92;100445.63;10354010;28;96608;-79
2022/01/01 05:38:17;;;;;;;30.67;27.83;;;12.10;99.90;;;10.28;82.05;100463.84;10374871;27;96732;-79
2022/01/01 05:43:28;;;;;;;5.50;3.43;;;12.10;99.90;;;10.26;82.27;100455.22;10385617;28;97075;-80
2022/01/01 05:48:31;;;;;;;5.47;2.23;;;12.10;99.90;;;10.25;82.25;100462.34;10413208;28;96571;-80
2022/01/01 05:53:34;;;;;;;5.23;2.43;;;12.00;99.90;;;10.25;82.26;100474.78;10370807;28;98357;-80
2022/01/01 05:58:37;;;;;;;4.80;2.43;;;12.00;99.90;;;10.15;82.57;100483.69;10349369;28;97227;-80
2022/01/01 06:03:40;;;;;;;6.10;2.30;;;12.00;99.90;;;10.17;83.21;100496.78;10348047;28;97373;-79
2022/01/01 06:08:43;;;;;;;5.13;2.97;;;12.00;99.90;;;10.29;82.85;100497.38;10357856;28;96645;-80
2022/01/01 06:13:46;;;;;;;4.23;2.50;;;12.00;99.90;;;10.30;82.78;100494.56;10375320;28;98047;-79
2022/01/01 06:18:52;;;;;;;5.87;3.00;;;12.10;99.90;;;10.32;82.69;100511.19;10398544;28;97391;-79
2022/01/01 06:23:55;;;;;;;6.03;2.90;;;12.10;99.90;;;10.30;82.77;100491.91;10388566;28;98336;-79
2022/01/01 06:28:58;;;;;;;80.10;50.67;;;12.10;99.90;;;10.34;83.03;100487.13;10357274;28;96590;-79
2022/01/01 06:34:01;;;;;;;29.30;17.90;;;12.10;99.90;;;10.36;82.58;100490.44;10387679;27;97910;-79
2022/01/01 06:39:05;;;;;;;27.10;18.13;;;12.20;99.90;;;10.35;82.60;100476.34;10360807;27;96713;-79
2022/01/01 06:44:08;;;;;;;10.63;6.23;;;12.20;99.90;;;10.36;82.74;100478.00;10365718;28;97271;-79
2022/01/01 06:49:13;;;;;;;7.23;4.57;;;12.20;99.90;;;10.28;82.34;100493.91;10377215;28;98438;-79
2022/01/01 06:54:16;;;;;;;6.83;3.57;;;12.10;99.90;;;10.22;82.81;100481.22;10356937;27;96796;-79
2022/01/01 06:59:19;;;;;;;5.67;3.50;;;12.00;99.90;;;10.33;82.87;100510.19;10384472;28;97625;-79
2022/01/01 07:04:21;;;;;;;7.30;4.37;;;12.00;99.90;;;10.52;82.63;100514.44;10362755;28;98840;-79
2022/01/01 07:09:26;;;;;;;3.93;2.53;;;12.10;99.90;;;10.80;81.63;100511.56;10407749;28;96630;-79
2022/01/01 07:14:29;;;;;;;8.13;3.67;;;12.30;99.90;;;10.99;80.71;100520.06;10385639;28;96643;-79
2022/01/01 07:19:32;;;;;;;4.03;2.33;;;12.40;99.90;;;11.00;80.26;100523.56;10371045;28;98335;-79
2022/01/01 07:24:35;;;;;;;7.83;5.73;;;12.60;99.90;;;10.95;80.33;100531.19;10366434;28;97063;-79
2022/01/01 07:29:39;;;;;;;3.50;1.90;;;12.60;99.90;;;10.90;80.52;100538.81;10395742;27;96693;-80
2022/01/01 07:34:42;;;;;;;13.27;6.80;;;12.60;99.90;;;10.87;80.62;100541.81;10428987;27;96843;-78
2022/01/01 07:39:45;;;;;;;8.20;4.00;;;12.60;99.90;;;10.83;80.96;100545.78;10404895;27;97015;-79
2022/01/01 07:44:48;;;;;;;3.33;2.20;;;12.60;99.90;;;10.84;81.18;100552.75;10385108;28;96737;-79
2022/01/01 07:49:51;;;;;;;5.27;2.93;;;12.60;99.90;;;10.98;81.35;100537.03;10393547;28;96844;-79
2022/01/01 07:54:54;;;;;;;4.63;1.80;;;12.70;99.90;;;11.69;80.84;100546.25;10375885;28;96686;-80
2022/01/01 07:59:58;;;;;;;5.25;2.20;;;13.00;99.90;;;12.49;77.04;100535.66;10401285;28;97081;-80
2022/01/01 08:05:05;;;;;;;3.47;1.80;;;13.50;99.90;;;13.09;74.30;100548.38;10391511;28;96711;-80
2022/01/01 08:10:10;;;;;;;2.50;1.38;;;13.90;99.90;;;13.64;71.44;100555.38;10397878;28;96916;-80
2022/01/01 08:15:13;;;;;;;6.45;3.25;;;14.40;99.90;;;14.04;69.73;100558.72;10392686;28;96921;-80
2022/01/01 08:20:16;;;;;;;3.67;1.92;;;14.90;99.90;;;14.25;67.77;100567.84;10363428;28;96647;-78
2022/01/01 08:25:20;;;;;;;2.33;1.45;;;15.20;99.90;;;14.32;66.55;100582.97;10386815;27;97940;-78
2022/01/01 08:30:23;;;;;;;3.25;1.67;;;15.40;99.90;;;14.34;66.04;100572.13;10376937;28;97230;-79
2022/01/01 08:35:26;;;;;;;4.47;2.17;;;15.50;99.90;;;14.50;66.31;100569.28;10398827;27;96970;-79
2022/01/01 08:40:30;;;;;;;2.58;1.40;;;15.70;99.90;;;14.67;65.40;100568.09;10371412;28;96920;-79
2022/01/01 08:45:39;;;;;;;3.42;1.60;;;15.90;99.90;;;14.77;65.13;100561.63;10384585;28;97218;-79
2022/01/01 08:50:46;;;;;;;3.45;1.92;;;16.00;99.90;;;14.98;64.75;100567.03;10372896;28;98736;-80
2022/01/01 08:55:49;;;;;;;5.93;2.42;;;16.20;99.90;;;14.93;63.45;100577.47;10389416;28;97018;-79
2022/01/01 09:00:52;;;;;;;3.90;1.88;;;16.20;99.90;;;14.42;64.92;100598.75;10376745;28;98377;-80
2022/01/01 09:05:58;;;;;;;9.40;3.50;;;16.00;99.90;;;13.90;66.45;100610.25;10379750;28;98320;-80
2022/01/01 09:11:14;;;;;;;4.90;2.72;;;15.60;99.90;;;13.39;68.06;100615.31;10391337;28;96855;-80
2022/01/01 09:16:18;;;;;;;5.63;2.63;;;15.20;99.90;;;12.93;69.44;100614.31;10362265;28;97433;-80
2022/01/01 09:21:21;;;;;;;4.15;1.98;;;14.80;99.90;;;12.57;70.99;100622.78;10353578;27;96566;-80
2022/01/01 09:26:28;;;;;;;4.63;2.58;;;14.50;99.90;;;12.26;72.32;100634.16;10396120;27;97126;-80
2022/01/01 09:31:32;;;;;;;6.67;3.83;;;14.10;99.90;;;12.03;73.54;100636.66;10403891;27;96709;-80
2022/01/01 09:36:35;;;;;;;5.77;2.80;;;13.90;99.90;;;11.84;74.50;100637.00;10404530;27;100246;-80
2022/01/01 09:41:42;;;;;;;4.17;2.60;;;13.70;99.90;;;11.80;75.42;100638.28;10393718;28;97284;-80
2022/01/01 09:46:49;;;;;;;5.07;2.08;;;13.50;99.90;;;11.95;75.26;100630.50;10413872;28;96651;-80
2022/01/01 09:51:52;;;;;;;4.70;2.20;;;13.70;99.90;;;11.97;74.93;100623.19;10386362;28;96865;-79
2022/01/01 09:56:55;;;;;;;4.03;2.47;;;13.70;99.90;;;11.90;75.60;100622.19;10361146;28;96691;-80
2022/01/01 10:01:58;;;;;;;3.77;2.17;;;13.60;99.90;;;11.88;76.00;100633.00;10388059;27;96595;-80
2022/01/01 10:07:06;;;;;;;9.10;2.70;;;13.60;99.90;;;11.91;76.32;100645.16;10396235;27;99817;-80
2022/01/01 10:12:15;;;;;;;4.50;2.07;;;13.60;99.90;;;12.04;75.04;100643.66;10400109;27;96704;-80
2022/01/01 10:17:23;;;;;;;4.67;2.63;;;13.70;99.90;;;12.12;74.97;100642.00;10414358;27;96712;-80
2022/01/01 10:22:26;;;;;;;5.33;2.97;;;13.80;99.90;;;12.18;75.35;100633.34;10413330;27;97163;-80
2022/01/01 10:27:43;;;;;;;5.63;2.37;;;13.90;99.90;;;12.27;75.21;100648.31;10379531;28;97124;-80
2022/01/01 10:33:05;;;;;;;4.60;2.50;;;13.90;99.90;;;12.41;74.81;100646.78;10382855;28;96764;-80
2022/01/01 10:38:21;;;;;;;3.35;2.15;;;14.10;99.90;;;12.47;74.16;100643.44;10401506;27;96975;-81
2022/01/01 10:43:41;;;;;;;5.37;2.40;;;14.10;99.90;;;12.62;74.19;100662.25;10386523;27;96815;-80
2022/01/01 10:54:03;;;;;;;6.03;3.10;;;14.40;99.90;;;12.83;72.80;100676.72;10392788;28;97286;-79
2022/01/01 10:59:09;;;;;;;4.47;2.35;;;14.50;99.90;;;12.82;73.18;100684.88;10395144;28;96811;-79
2022/01/01 11:04:13;;;;;;;5.53;2.40;;;14.50;99.90;;;12.75;72.98;100671.38;10389830;28;98657;-79
2022/01/01 11:09:17;;;;;;;3.72;2.55;;;14.50;99.90;;;12.72;72.88;100661.06;10410751;28;96764;-79
2022/01/01 11:14:21;;;;;;;5.13;2.47;;;14.40;99.90;;;12.70;72.96;100651.56;10389936;28;96562;-79
2022/01/01 11:19:29;;;;;;;9.57;4.45;;;14.40;99.90;;;12.68;73.29;100654.41;10396833;27;99077;-79
2022/01/01 11:24:33;;;;;;;5.30;2.92;;;14.40;99.90;;;12.69;73.23;100644.56;10385957;27;97944;-79
2022/01/01 11:29:39;;;;;;;3.83;2.30;;;14.40;99.90;;;12.62;73.33;100654.25;10380415;28;96629;-79
2022/01/01 11:34:44;;;;;;;6.25;2.15;;;14.30;99.90;;;12.54;73.69;100657.78;10392040;27;96693;-79
2022/01/01 11:39:48;;;;;;;4.20;2.67;;;14.30;99.90;;;12.49;74.12;100666.28;10382293;28;97475;-80
2022/01/01 11:44:54;;;;;;;6.18;3.80;;;14.20;99.90;;;12.49;74.43;100676.94;10372337;28;98291;-80
2022/01/01 11:49:58;;;;;;;3.80;2.58;;;14.20;99.90;;;12.58;74.24;100675.91;10368524;28;97918;-80
2022/01/01 11:55:14;;;;;;;6.57;4.53;;;14.20;99.90;;;12.66;73.95;100684.91;10372033;28;97180;-80
2022/01/01 12:00:18;;;;;;;7.28;4.57;;;14.30;99.90;;;12.67;74.18;100683.91;10362876;28;96613;-80
2022/01/01 12:05:29;;;;;;;8.17;6.60;;;14.30;99.90;;;12.68;73.87;100686.41;10384213;28;97098;-79
2022/01/01 12:10:35;;;;;;;4.57;3.10;;;14.40;99.90;;;12.65;73.78;100691.22;10374430;28;96963;-80
2022/01/01 12:15:51;;;;;;;3.83;2.07;;;14.40;99.90;;;12.61;73.56;100689.94;10366540;28;97132;-82
2022/01/01 12:21:03;;;;;;;4.00;1.90;;;14.30;99.90;;;12.54;73.28;100701.25;10375144;28;97345;-82
2022/01/01 12:26:12;;;;;;;2.50;1.70;;;14.30;99.90;;;12.47;73.10;100694.91;10373064;27;97365;-79
2022/01/01 12:31:22;;;;;;;4.27;2.47;;;14.20;99.90;;;12.42;73.50;100699.13;10364735;28;98344;-79
2022/01/01 12:36:33;;;;;;;2.33;1.83;;;14.10;99.90;;;12.36;73.44;100713.94;10363855;28;98402;-78
2022/01/01 12:41:41;;;;;;;5.33;2.60;;;14.10;99.90;;;12.33;73.36;100708.94;10373185;28;98409;-77
2022/01/01 12:47:12;;;;;;;3.43;2.10;;;14.00;99.90;;;12.31;73.81;100711.75;10374373;28;96735;-77
2022/01/01 12:52:22;;;;;;;3.97;2.10;;;14.00;99.90;;;12.30;74.05;100717.28;10379477;28;96836;-78
2022/01/01 12:57:26;;;;;;;3.23;1.60;;;14.00;99.90;;;12.28;73.85;100721.91;10378335;28;98386;-78
2022/01/01 13:02:29;;;;;;;3.87;2.67;;;14.00;99.90;;;12.25;74.30;100738.25;10372737;28;97834;-79
2022/01/01 13:07:32;;;;;;;3.20;2.07;;;14.00;99.90;;;12.23;74.59;100734.91;10389626;28;99221;-78
2022/01/01 13:12:35;;;;;;;8.20;4.13;;;14.00;99.90;;;12.20;74.65;100740.56;10378755;28;96990;-79
2022/01/01 13:17:47;;;;;;;3.33;1.87;;;13.90;99.90;;;12.16;74.57;100740.06;10354493;27;98299;-79
2022/01/01 13:22:49;;;;;;;23.67;12.00;;;13.90;99.90;;;12.16;74.82;100733.91;10373280;28;96775;-79
2022/01/01 13:27:53;;;;;;;8.40;4.00;;;13.90;99.90;;;12.15;74.94;100743.72;10358432;28;97167;-78
2022/01/01 13:32:56;;;;;;;3.87;2.37;;;13.90;99.90;;;12.15;75.21;100745.56;10375789;27;96897;-79
2022/01/01 13:37:59;;;;;;;14.00;6.23;;;13.90;99.90;;;12.10;75.49;100742.53;10388403;28;97052;-79
2022/01/01 13:43:11;;;;;;;8.80;4.53;;;13.80;99.90;;;12.09;75.70;100746.22;10376939;28;97330;-79
2022/01/01 13:48:15;;;;;;;4.60;2.73;;;13.80;99.90;;;12.07;75.66;100753.53;10373560;28;96671;-79
2022/01/01 13:53:18;;;;;;;4.77;2.40;;;13.80;99.90;;;12.05;75.56;100751.88;10398379;27;96866;-79
2022/01/01 13:58:22;;;;;;;3.00;1.87;;;13.70;99.90;;;12.01;75.51;100753.19;10377359;28;96687;-79
2022/01/01 14:03:27;;;;;;;3.73;2.40;;;13.70;99.90;;;12.01;75.32;100769.19;10362121;28;96668;-79
2022/01/01 14:08:30;;;;;;;2.63;2.20;;;13.70;99.90;;;11.99;75.01;100771.16;10358206;28;96805;-79
2022/01/01 14:14:09;;;;;;;4.13;1.90;;;13.70;99.90;;;11.98;75.20;100785.47;10361713;27;98747;-78
2022/01/01 14:19:18;;;;;;;3.97;2.00;;;13.70;99.90;;;11.94;75.55;100776.16;10361222;28;97956;-78
2022/01/01 14:24:23;;;;;;;3.93;2.47;;;13.60;99.90;;;11.94;75.46;100791.31;10362882;27;97815;-79
2022/01/01 14:29:28;;;;;;;4.20;1.90;;;13.60;99.90;;;11.93;75.63;100794.94;10392290;27;96849;-79
2022/01/01 14:34:31;;;;;;;3.43;2.00;;;13.60;99.90;;;11.91;75.85;100802.28;10386716;28;98338;-79
2022/01/01 14:39:35;;;;;;;3.90;2.30;;;13.60;99.90;;;11.88;75.91;100815.94;10352615;27;96736;-79
2022/01/01 14:44:39;;;;;;;3.60;2.03;;;13.60;99.90;;;11.86;76.53;100817.91;10374678;28;99043;-79
2022/01/01 14:49:47;;;;;;;3.73;2.70;;;13.50;99.90;;;11.83;76.88;100807.59;10359183;28;96610;-80
2022/01/01 14:55:26;;;;;;;4.30;1.63;;;13.50;99.90;;;11.77;77.30;100814.34;10387002;28;98421;-80
2022/01/01 15:00:34;;;;;;;4.93;2.30;;;13.50;99.90;;;11.73;77.70;100820.97;10370254;28;96653;-80
2022/01/01 15:05:37;;;;;;;3.73;2.07;;;13.40;99.90;;;11.71;77.65;100828.31;10380447;28;96708;-79
2022/01/01 15:10:42;;;;;;;4.57;2.83;;;13.40;99.90;;;11.68;77.59;100823.28;10386586;28;96947;-79
2022/01/01 15:15:46;;;;;;;3.30;2.03;;;13.40;99.90;;;11.65;77.68;100837.75;10354622;28;96738;-78
2022/01/01 15:21:02;;;;;;;3.30;1.90;;;13.40;99.90;;;11.65;77.78;100844.91;10373092;28;96656;-79
2022/01/01 15:26:05;;;;;;;3.70;1.67;;;13.30;99.90;;;11.63;78.12;100839.72;10363649;28;96988;-79
2022/01/01 15:31:21;;;;;;;3.93;2.23;;;13.30;99.90;;;11.61;78.37;100843.56;10365000;27;99108;-79
2022/01/01 15:36:36;;;;;;;5.23;1.87;;;13.30;99.90;;;11.59;78.02;100850.88;10376736;28;96751;-78
2022/01/01 15:46:53;;;;;;;4.30;2.23;;;13.30;99.90;;;11.61;77.27;100844.38;10379337;27;98229;-78
2022/01/01 15:51:56;;;;;;;;;;;13.30;99.90;;;11.63;77.14;100845.06;10360896;28;96781;-78
2022/01/01 15:57:32;;;;;;;2.67;1.63;;;13.30;99.90;;;11.64;76.91;100840.59;10362738;28;96623;-79
2022/01/01 16:03:30;;;;;;;3.27;1.80;;;13.30;99.90;;;11.68;76.63;100841.91;10349805;28;97723;-79
2022/01/01 16:08:51;;;;;;;3.07;1.97;;;13.30;99.90;;;11.69;76.33;100844.41;10391052;27;97784;-78
2022/01/01 16:13:57;;;;;;;3.60;2.23;;;13.30;99.90;;;11.70;76.25;100850.59;10370308;28;96686;-79
2022/01/01 16:19:07;;;;;;;2.83;1.53;;;13.40;99.90;;;11.71;75.94;100854.94;10367840;28;96722;-79
2022/01/01 16:24:10;;;;;;;4.70;1.80;;;13.40;99.90;;;11.72;75.82;100851.25;10378683;28;96927;-79
2022/01/01 16:29:13;;;;;;;3.13;1.90;;;13.40;99.90;;;11.71;75.98;100849.59;10357365;28;96647;-79
2022/01/01 16:34:21;;;;;;;4.30;2.00;;;13.40;99.90;;;11.71;75.67;100847.78;10367688;27;98003;-79
2022/01/01 16:39:26;;;;;;;3.20;1.93;;;13.40;99.90;;;11.71;75.70;100858.41;10372499;27;97742;-78
2022/01/01 16:44:55;;;;;;;3.50;2.20;;;13.40;99.90;;;11.73;75.48;100850.25;10377891;27;96763;-79
2022/01/01 16:50:11;;;;;;;3.50;1.90;;;13.40;99.90;;;11.73;75.57;100860.91;10356626;28;97383;-79
2022/01/01 16:55:30;;;;;;;3.77;2.10;;;13.40;99.90;;;11.76;75.49;100860.63;10391358;27;97195;-79
2022/01/01 17:00:43;;;;;;;7.40;2.30;;;13.40;99.90;;;11.76;75.33;100872.09;10371484;28;98081;-80
2022/01/01 17:05:49;;;;;;;5.57;3.00;;;13.40;99.90;;;11.75;75.34;100874.91;10378566;28;96803;-80
2022/01/01 17:10:53;;;;;;;4.60;2.67;;;13.40;99.90;;;11.70;75.69;100871.91;10366014;28;98540;-79
2022/01/01 17:16:10;;;;;;;3.33;2.33;;;13.40;99.90;;;11.66;75.81;100870.53;10376825;27;96841;-80
2022/01/01 17:21:19;;;;;;;3.50;2.10;;;13.40;99.90;;;11.61;75.92;100878.16;10386739;27;97280;-79
2022/01/01 17:26:26;;;;;;;6.03;2.30;;;13.40;99.90;;;11.60;76.11;100872.00;10377495;27;96700;-79
2022/01/01 17:31:36;;;;;;;3.63;2.17;;;13.30;99.90;;;11.58;75.96;100878.50;10379477;27;101226;-79
2022/01/01 17:42:08;;;;;;;5.00;2.70;;;13.30;99.90;;;11.57;76.08;100871.47;10378834;28;96572;-80
2022/01/01 17:47:13;;;;;;;3.37;2.20;;;13.30;99.90;;;11.56;75.98;100877.78;10368912;28;98191;-80
2022/01/01 17:52:24;;;;;;;4.80;2.40;;;13.30;99.90;;;11.57;76.21;100879.47;10383492;28;96584;-78
2022/01/01 17:57:51;;;;;;;4.90;2.50;;;13.30;99.90;;;11.59;76.14;100877.50;10364576;28;98109;-79
2022/01/01 18:02:55;;;;;;;5.07;2.33;;;13.30;99.90;;;11.60;76.22;100887.16;10344802;28;97205;-79
2022/01/01 18:08:24;;;;;;;3.60;2.20;;;13.30;99.90;;;11.58;76.24;100894.47;10356960;28;96888;-79
2022/01/01 18:13:45;;;;;;;4.93;2.30;;;13.30;99.90;;;11.58;76.14;100895.28;10385085;28;97947;-79
2022/01/01 18:18:51;;;;;;;4.03;2.40;;;13.30;99.90;;;11.57;76.19;100876.78;10393302;28;97010;-79
2022/01/01 18:24:21;;;;;;;4.30;2.37;;;13.30;99.90;;;11.57;76.13;100884.78;10388543;27;96797;-79
2022/01/01 18:29:26;;;;;;;6.13;2.97;;;13.30;99.90;;;11.55;76.14;100886.78;10351459;27;96878;-79
2022/01/01 18:34:33;;;;;;;5.10;2.77;;;13.20;99.90;;;11.52;76.16;100875.47;10387821;27;96572;-79
2022/01/01 18:39:38;;;;;;;4.70;2.63;;;13.20;99.90;;;11.51;76.14;100879.13;10367780;28;98352;-79
2022/01/01 18:44:42;;;;;;;4.47;2.60;;;13.20;99.90;;;11.46;76.12;100870.78;10358635;28;98863;-80
2022/01/01 18:49:46;;;;;;;6.20;2.63;;;13.20;99.90;;;11.39;76.15;100864.38;10375209;28;96563;-79
2022/01/01 18:55:03;;;;;;;6.97;2.90;;;13.10;99.90;;;11.32;76.38;100859.84;10402761;28;97126;-79
2022/01/01 19:00:17;;;;;;;5.47;2.90;;;13.00;99.90;;;11.24;76.50;100855.31;10385913;28;96629;-80
2022/01/01 19:05:30;;;;;;;6.27;3.80;;;12.90;99.90;;;11.14;76.92;100866.03;10398762;28;98684;-79
2022/01/01 19:10:43;;;;;;;5.47;2.83;;;12.80;99.90;;;11.10;76.86;100866.53;10380485;28;96629;-78
2022/01/01 19:15:50;;;;;;;5.70;2.83;;;12.80;99.90;;;11.06;77.29;100883.78;10379572;28;96677;-79
2022/01/01 19:20:57;;;;;;;5.17;2.97;;;12.80;99.90;;;11.03;77.62;100886.72;10368786;28;98931;-79
2022/01/01 19:26:01;;;;;;;5.23;3.00;;;12.70;99.90;;;11.06;77.23;100886.44;10374639;28;97018;-79
2022/01/01 19:31:05;;;;;;;4.47;2.73;;;12.70;99.90;;;10.99;77.10;100887.06;10393734;28;97091;-80
2022/01/01 19:36:08;;;;;;;4.73;2.60;;;12.70;99.90;;;10.87;77.59;100880.31;10394361;28;96886;-79
2022/01/01 19:41:18;;;;;;;7.13;2.87;;;12.60;99.90;;;10.77;77.79;100895.50;10376959;28;99140;-80
2022/01/01 19:46:29;;;;;;;6.80;2.50;;;12.50;99.90;;;10.64;78.31;100901.19;10387534;28;97300;-79
2022/01/01 19:51:33;;;;;;;5.07;2.70;;;12.40;99.90;;;10.57;78.52;100904.63;10382146;28;97194;-79
2022/01/01 19:56:36;;;;;;;6.83;3.73;;;12.30;99.90;;;10.50;78.92;100900.88;10391632;28;96818;-80
2022/01/01 20:01:39;;;;;;;5.37;3.47;;;12.30;99.90;;;10.37;79.55;100893.25;10393220;28;96736;-80
2022/01/01 20:06:42;;;;;;;7.50;3.07;;;12.20;99.90;;;10.29;79.83;100898.50;10385372;28;98326;-80
2022/01/01 20:11:45;;;;;;;6.37;3.07;;;12.10;99.90;;;10.22;80.21;100911.50;10372896;28;98858;-80
2022/01/01 20:16:48;;;;;;;5.07;3.00;;;12.00;99.90;;;10.15;80.16;100907.78;10378701;28;97344;-80
2022/01/01 20:21:51;;;;;;;6.73;2.67;;;11.90;99.90;;;10.10;80.49;100925.97;10384210;28;96728;-80
2022/01/01 20:26:54;;;;;;;5.13;2.60;;;11.90;99.90;;;10.03;80.52;100924.88;10382876;28;98021;-80
2022/01/01 20:32:01;;;;;;;5.10;2.40;;;11.80;99.90;;;9.95;80.83;100920.28;10392037;28;97037;-80
2022/01/01 20:37:04;;;;;;;6.47;2.80;;;11.70;99.90;;;9.90;81.27;100928.69;10390907;28;97154;-80
2022/01/01 20:42:07;;;;;;;5.90;3.10;;;11.70;99.90;;;9.89;81.88;100937.63;10388357;28;99925;-79
2022/01/01 20:47:12;;;;;;;5.83;3.00;;;11.60;99.90;;;9.89;81.43;100926.16;10373553;28;98375;-80
2022/01/01 20:52:15;;;;;;;7.03;3.10;;;11.70;99.90;;;9.86;81.72;100926.47;10382296;28;98258;-80
2022/01/01 20:57:18;;;;;;;4.90;3.13;;;11.60;99.90;;;9.81;81.78;100929.56;10387070;28;96936;-80
2022/01/01 21:02:25;;;;;;;6.23;2.93;;;11.60;99.90;;;9.79;81.89;100936.84;10376480;28;96849;-80
2022/01/01 21:07:30;;;;;;;5.03;3.40;;;11.50;99.90;;;9.74;82.00;100935.59;10376721;28;96533;-80
2022/01/01 21:12:38;;;;;;;7.93;4.10;;;11.50;99.90;;;9.58;82.46;100920.28;10388302;28;97484;-79
2022/01/01 21:17:42;;;;;;;7.53;4.00;;;11.40;99.90;;;9.48;83.16;100912.34;10383018;28;96605;-79
2022/01/01 21:22:45;;;;;;;7.30;4.67;;;11.30;99.90;;;9.49;83.41;100908.72;10372063;28;96769;-79
2022/01/01 21:27:49;;;;;;;8.53;3.60;;;11.20;99.90;;;9.44;83.37;100913.59;10388892;28;96976;-79